ΕΜΥ, Εθνική Μετεωρολογική Υπηρεσία - Δελτία Καιρού, Προγνώσεις

ΑΕΡΟΝΑΥΤΙΛΙΑ

GREEK AIRPORTS CODES

TAF LGKC 192300Z 2000/2009 03012KT 9999 FEW018 BECMG 2004/2006 29010KT=

EUROPEAN AIRPORTS CODES